createdAt,value
2018-11-01T00:00:58.097Z,1012.46
2018-11-01T00:01:58.121Z,1012.46
2018-11-01T00:02:58.069Z,1012.49
2018-11-01T00:03:58.060Z,1012.45
2018-11-01T00:04:58.045Z,1012.48
2018-11-01T00:05:58.039Z,1012.54
2018-11-01T00:06:58.027Z,1012.44
2018-11-01T00:07:58.056Z,1012.48
2018-11-01T00:08:58.010Z,1012.48
2018-11-01T00:09:57.997Z,1012.47
2018-11-01T00:10:57.990Z,1012.44
2018-11-01T00:11:57.974Z,1012.48
2018-11-01T00:12:57.960Z,1012.49
2018-11-01T00:13:57.985Z,1012.46
2018-11-01T00:14:57.936Z,1012.46
2018-11-01T00:15:57.932Z,1012.50
2018-11-01T00:17:10.099Z,1012.50
2018-11-01T00:17:57.910Z,1012.48
2018-11-01T00:18:57.898Z,1012.50
2018-11-01T00:19:58.060Z,1012.52
2018-11-01T00:20:57.869Z,1012.48
2018-11-01T00:21:57.861Z,1012.56
2018-11-01T00:22:57.855Z,1012.50
2018-11-01T00:23:57.844Z,1012.56
2018-11-01T00:24:57.830Z,1012.44
2018-11-01T00:25:57.860Z,1012.41
2018-11-01T00:26:57.812Z,1012.40
2018-11-01T00:27:57.796Z,1012.43
2018-11-01T00:28:57.797Z,1012.55
2018-11-01T00:29:57.777Z,1012.50
2018-11-01T00:30:57.767Z,1012.47
2018-11-01T00:31:57.791Z,1012.45
2018-11-01T00:32:57.745Z,1012.53
2018-11-01T00:33:57.733Z,1012.53
2018-11-01T00:34:57.728Z,1012.61
2018-11-01T00:35:57.712Z,1012.57
2018-11-01T00:36:57.701Z,1012.66
2018-11-01T00:37:57.858Z,1012.62
2018-11-01T00:38:57.682Z,1012.63
2018-11-01T00:39:57.670Z,1012.61
2018-11-01T00:40:57.656Z,1012.72
2018-11-01T00:41:57.651Z,1012.65
2018-11-01T00:42:57.637Z,1012.61
2018-11-01T00:43:57.648Z,1012.58
2018-11-01T00:44:57.616Z,1012.60
2018-11-01T00:45:57.602Z,1012.60
2018-11-01T00:46:57.588Z,1012.63
2018-11-01T00:48:08.026Z,1012.59
2018-11-01T00:48:57.573Z,1012.63
2018-11-01T00:49:57.714Z,1012.55
2018-11-01T00:50:57.546Z,1012.51
2018-11-01T00:51:57.535Z,1012.55
2018-11-01T00:52:57.523Z,1012.54
2018-11-01T00:53:57.526Z,1012.78
2018-11-01T00:54:57.506Z,1012.66
2018-11-01T00:55:57.620Z,1012.72
2018-11-01T00:56:57.484Z,1012.66
2018-11-01T00:57:57.479Z,1012.62
2018-11-01T00:58:57.462Z,1012.66
2018-11-01T00:59:57.450Z,1012.69
2018-11-01T01:00:57.441Z,1012.73
2018-11-01T01:01:57.445Z,1012.67
2018-11-01T01:02:57.421Z,1012.64
2018-11-01T01:03:57.409Z,1012.67
2018-11-01T01:04:57.401Z,1012.66
2018-11-01T01:05:57.385Z,1012.70
2018-11-01T01:06:57.372Z,1012.78
2018-11-01T01:07:57.412Z,1012.68
2018-11-01T01:08:57.350Z,1012.73
2018-11-01T01:09:57.339Z,1012.67
2018-11-01T01:10:57.329Z,1012.70
2018-11-01T01:11:57.328Z,1012.68
2018-11-01T01:12:57.310Z,1012.63
2018-11-01T01:13:57.335Z,1012.61
2018-11-01T01:14:57.289Z,1012.60
2018-11-01T01:15:57.274Z,1012.64
2018-11-01T01:16:57.265Z,1012.66
2018-11-01T01:17:57.260Z,1012.61
2018-11-01T01:19:08.026Z,1012.64
2018-11-01T01:19:57.234Z,1012.59
2018-11-01T01:20:57.220Z,1012.64
2018-11-01T01:21:57.210Z,1012.64
2018-11-01T01:22:57.200Z,1012.60
2018-11-01T01:23:57.188Z,1012.64
2018-11-01T01:24:57.214Z,1012.58
2018-11-01T01:25:57.164Z,1012.61
2018-11-01T01:26:57.162Z,1012.68
2018-11-01T01:27:57.153Z,1012.72
2018-11-01T01:28:57.134Z,1012.65
2018-11-01T01:29:57.124Z,1012.63
2018-11-01T01:30:57.168Z,1012.64
2018-11-01T01:31:57.107Z,1012.68
2018-11-01T01:32:57.096Z,1012.68
2018-11-01T01:33:57.086Z,1012.74
2018-11-01T01:34:57.076Z,1012.67
2018-11-01T01:35:57.059Z,1012.66
2018-11-01T01:36:57.304Z,1012.66
2018-11-01T01:37:57.038Z,1012.66
2018-11-01T01:38:57.024Z,1012.65
2018-11-01T01:39:57.021Z,1012.69
2018-11-01T01:40:57.012Z,1012.67
2018-11-01T01:41:56.995Z,1012.67
2018-11-01T01:42:57.015Z,1012.69
2018-11-01T01:43:56.982Z,1012.67
2018-11-01T01:44:56.961Z,1012.62
2018-11-01T01:45:56.955Z,1012.64
2018-11-01T01:46:56.944Z,1012.65
2018-11-01T01:47:56.927Z,1012.63
2018-11-01T01:48:56.965Z,1012.56
2018-11-01T01:50:07.255Z,1012.59
2018-11-01T01:50:56.896Z,1012.58
2018-11-01T01:51:56.885Z,1012.72
2018-11-01T01:52:56.874Z,1012.58
2018-11-01T01:53:56.864Z,1012.66
2018-11-01T01:54:56.887Z,1012.68
2018-11-01T01:55:56.848Z,1012.68
2018-11-01T01:56:56.838Z,1012.76
2018-11-01T01:57:56.819Z,1012.73
2018-11-01T01:58:56.812Z,1012.73
2018-11-01T01:59:56.796Z,1012.72
2018-11-01T02:00:56.829Z,1012.77
2018-11-01T02:01:56.777Z,1012.73
2018-11-01T02:02:56.771Z,1012.82
2018-11-01T02:03:56.756Z,1012.79
2018-11-01T02:04:56.742Z,1012.85
2018-11-01T02:05:56.729Z,1012.84
2018-11-01T02:06:56.761Z,1012.91
2018-11-01T02:07:56.712Z,1012.95
2018-11-01T02:08:56.706Z,1012.91
2018-11-01T02:09:56.688Z,1012.95
2018-11-01T02:10:56.680Z,1012.88
2018-11-01T02:11:56.795Z,1012.86
2018-11-01T02:12:56.693Z,1012.86
2018-11-01T02:13:56.644Z,1012.90
2018-11-01T02:14:56.632Z,1012.92
2018-11-01T02:15:56.622Z,1012.93
2018-11-01T02:16:56.617Z,1012.89
2018-11-01T02:17:56.603Z,1012.97
2018-11-01T02:18:56.629Z,1012.87
2018-11-01T02:19:56.586Z,1012.92
2018-11-01T02:21:07.589Z,1012.84
2018-11-01T02:21:56.561Z,1012.92
2018-11-01T02:22:56.547Z,1013.00
2018-11-01T02:23:56.539Z,1012.93
2018-11-01T02:24:56.561Z,1013.00
2018-11-01T02:25:56.522Z,1012.98
2018-11-01T02:26:56.508Z,1012.89
2018-11-01T02:27:56.500Z,1012.89
2018-11-01T02:28:56.495Z,1012.92
2018-11-01T02:29:56.476Z,1012.97
2018-11-01T02:30:56.497Z,1012.95
2018-11-01T02:31:56.462Z,1012.93
2018-11-01T02:32:56.445Z,1012.97
2018-11-01T02:33:56.440Z,1012.96
2018-11-01T02:34:56.414Z,1012.87
2018-11-01T02:35:56.405Z,1012.95
2018-11-01T02:36:56.435Z,1012.88
2018-11-01T02:37:56.427Z,1012.92
2018-11-01T02:38:56.379Z,1012.97
2018-11-01T02:39:56.367Z,1013.00
2018-11-01T02:40:56.357Z,1012.93
2018-11-01T02:41:56.342Z,1012.99
2018-11-01T02:42:56.389Z,1012.91
2018-11-01T02:43:56.329Z,1012.97
2018-11-01T02:44:56.320Z,1013.03
2018-11-01T02:45:56.305Z,1013.08
2018-11-01T02:46:56.289Z,1013.05
2018-11-01T02:47:56.283Z,1013.02
2018-11-01T02:48:56.305Z,1012.98
2018-11-01T02:49:56.262Z,1012.99
2018-11-01T02:50:56.251Z,1013.00
2018-11-01T02:52:07.746Z,1013.03
2018-11-01T02:52:56.229Z,1012.96
2018-11-01T02:53:56.216Z,1012.98
2018-11-01T02:54:56.246Z,1013.00
2018-11-01T02:55:56.196Z,1012.95
2018-11-01T02:56:56.184Z,1012.97
2018-11-01T02:57:56.182Z,1012.99
2018-11-01T02:58:56.172Z,1012.97
2018-11-01T02:59:56.261Z,1013.01
2018-11-01T03:00:56.174Z,1012.97
2018-11-01T03:01:56.127Z,1013.01
2018-11-01T03:02:56.119Z,1013.05
2018-11-01T03:03:56.105Z,1013.05
2018-11-01T03:04:56.105Z,1013.14
2018-11-01T03:05:56.084Z,1013.07
2018-11-01T03:06:56.234Z,1013.07
2018-11-01T03:07:56.063Z,1013.07
2018-11-01T03:08:56.056Z,1013.05
2018-11-01T03:09:56.039Z,1013.08
2018-11-01T03:10:56.040Z,1013.03
2018-11-01T03:11:56.020Z,1013.14
2018-11-01T03:12:56.045Z,1013.07
2018-11-01T03:13:55.999Z,1013.02
2018-11-01T03:14:55.987Z,1013.03
2018-11-01T03:15:55.983Z,1013.10
2018-11-01T03:16:55.994Z,1013.00
2018-11-01T03:17:55.954Z,1013.00
2018-11-01T03:18:56.121Z,1012.98
2018-11-01T03:19:55.931Z,1013.00
2018-11-01T03:20:55.928Z,1012.99
2018-11-01T03:21:55.942Z,1012.97
2018-11-01T03:23:06.213Z,1013.04
2018-11-01T03:23:55.892Z,1013.04
2018-11-01T03:24:56.051Z,1013.04
2018-11-01T03:25:55.869Z,1012.99
2018-11-01T03:26:55.860Z,1013.03
2018-11-01T03:27:55.849Z,1013.05
2018-11-01T03:28:55.832Z,1013.06
2018-11-01T03:29:55.823Z,1013.11
2018-11-01T03:30:55.830Z,1013.04
2018-11-01T03:31:55.807Z,1013.04
2018-11-01T03:32:55.792Z,1013.15
2018-11-01T03:33:55.788Z,1013.15
2018-11-01T03:34:55.776Z,1013.09
2018-11-01T03:35:55.769Z,1013.10
2018-11-01T03:36:55.770Z,1013.19
2018-11-01T03:37:55.751Z,1013.18
2018-11-01T03:38:55.793Z,1013.17
2018-11-01T03:39:55.729Z,1013.19
2018-11-01T03:40:55.716Z,1013.16
2018-11-01T03:41:55.699Z,1013.16
2018-11-01T03:42:55.724Z,1013.15
2018-11-01T03:43:55.685Z,1013.15
2018-11-01T03:44:55.669Z,1013.11
2018-11-01T03:45:55.656Z,1013.10
2018-11-01T03:46:55.651Z,1013.17
2018-11-01T03:47:55.638Z,1013.14
2018-11-01T03:48:55.660Z,1013.16
2018-11-01T03:49:55.613Z,1013.12
2018-11-01T03:50:55.601Z,1013.09
2018-11-01T03:51:55.708Z,1013.14
2018-11-01T03:52:55.583Z,1013.16
2018-11-01T03:54:08.613Z,1013.17
2018-11-01T03:54:55.556Z,1013.23
2018-11-01T03:55:55.543Z,1013.20
2018-11-01T03:56:55.537Z,1013.16
2018-11-01T03:57:55.537Z,1013.27
2018-11-01T03:58:55.513Z,1013.24
2018-11-01T03:59:55.547Z,1013.38
2018-11-01T04:00:55.494Z,1013.32
2018-11-01T04:01:55.484Z,1013.35
2018-11-01T04:02:55.471Z,1013.33
2018-11-01T04:03:55.520Z,1013.43
2018-11-01T04:04:55.449Z,1013.31
2018-11-01T04:05:55.484Z,1013.30
2018-11-01T04:06:55.427Z,1013.37
2018-11-01T04:07:55.419Z,1013.33
2018-11-01T04:08:55.414Z,1013.33
2018-11-01T04:09:55.394Z,1013.32
2018-11-01T04:10:55.382Z,1013.34
2018-11-01T04:11:55.391Z,1013.41
2018-11-01T04:12:55.359Z,1013.46
2018-11-01T04:13:55.351Z,1013.45
2018-11-01T04:14:55.430Z,1013.40
2018-11-01T04:15:55.336Z,1013.44
2018-11-01T04:16:55.378Z,1013.37
2018-11-01T04:17:55.350Z,1013.43
2018-11-01T04:18:55.298Z,1013.40
2018-11-01T04:19:55.299Z,1013.48
2018-11-01T04:20:55.281Z,1013.50
2018-11-01T04:21:55.271Z,1013.41
2018-11-01T04:22:55.256Z,1013.42
2018-11-01T04:23:55.286Z,1013.45
2018-11-01T04:25:05.375Z,1013.46
2018-11-01T04:25:55.226Z,1013.44
2018-11-01T04:26:55.211Z,1013.54
2018-11-01T04:27:55.222Z,1013.52
2018-11-01T04:28:55.214Z,1013.43
2018-11-01T04:29:55.218Z,1013.55
2018-11-01T04:30:55.185Z,1013.49
2018-11-01T04:31:55.166Z,1013.52
2018-11-01T04:32:55.248Z,1013.52
2018-11-01T04:33:55.151Z,1013.51
2018-11-01T04:34:55.130Z,1013.49
2018-11-01T04:35:55.765Z,1013.49
2018-11-01T04:36:55.109Z,1013.60
2018-11-01T04:37:55.096Z,1013.61
2018-11-01T04:38:55.089Z,1013.48
2018-11-01T04:39:55.081Z,1013.61
2018-11-01T04:40:55.068Z,1013.54
2018-11-01T04:41:55.090Z,1013.64
2018-11-01T04:42:55.053Z,1013.60
2018-11-01T04:43:55.028Z,1013.62
2018-11-01T04:44:55.030Z,1013.54
2018-11-01T04:45:55.009Z,1013.58
2018-11-01T04:46:55.001Z,1013.47
2018-11-01T04:47:55.290Z,1013.56
2018-11-01T04:48:54.979Z,1013.70
2018-11-01T04:49:54.974Z,1013.61
2018-11-01T04:50:54.959Z,1013.63
2018-11-01T04:51:54.947Z,1013.59
2018-11-01T04:52:54.941Z,1013.68
2018-11-01T04:53:54.960Z,1013.63
2018-11-01T04:54:54.916Z,1013.74
2018-11-01T04:56:05.344Z,1013.68
2018-11-01T04:56:54.888Z,1013.70
2018-11-01T04:57:54.881Z,1013.60
2018-11-01T04:58:54.870Z,1013.55
2018-11-01T04:59:54.897Z,1013.65
2018-11-01T05:00:54.849Z,1013.64
2018-11-01T05:01:54.846Z,1013.67
2018-11-01T05:02:54.830Z,1013.66
2018-11-01T05:03:54.814Z,1013.62
2018-11-01T05:04:54.869Z,1013.60
2018-11-01T05:05:54.837Z,1013.75
2018-11-01T05:06:54.801Z,1013.68
2018-11-01T05:07:54.776Z,1013.69
2018-11-01T05:08:54.762Z,1013.69
2018-11-01T05:09:54.757Z,1013.71
2018-11-01T05:10:54.745Z,1013.69
2018-11-01T05:11:54.771Z,1013.80
2018-11-01T05:12:54.734Z,1013.68
2018-11-01T05:13:54.709Z,1013.65
2018-11-01T05:14:54.699Z,1013.72
2018-11-01T05:15:54.692Z,1013.65
2018-11-01T05:16:54.683Z,1013.71
2018-11-01T05:17:54.699Z,1013.69
2018-11-01T05:18:54.660Z,1013.78
2018-11-01T05:19:54.652Z,1013.78
2018-11-01T05:20:54.633Z,1013.80
2018-11-01T05:21:54.625Z,1013.88
2018-11-01T05:22:54.618Z,1013.78
2018-11-01T05:23:54.626Z,1013.87
2018-11-01T05:24:54.596Z,1014.00
2018-11-01T05:25:54.696Z,1013.99
2018-11-01T05:27:05.114Z,1013.89
2018-11-01T05:27:54.557Z,1013.90
2018-11-01T05:28:54.549Z,1014.07
2018-11-01T05:29:54.576Z,1014.00
2018-11-01T05:30:54.530Z,1014.04
2018-11-01T05:31:54.517Z,1014.07
2018-11-01T05:32:54.512Z,1014.11
2018-11-01T05:33:54.543Z,1014.06
2018-11-01T05:34:54.484Z,1014.07
2018-11-01T05:35:54.496Z,1013.99
2018-11-01T05:36:54.469Z,1014.16
2018-11-01T05:37:54.466Z,1014.05
2018-11-01T05:38:54.446Z,1014.04
2018-11-01T05:39:54.430Z,1013.98
2018-11-01T05:40:54.424Z,1013.96
2018-11-01T05:41:54.734Z,1013.99
2018-11-01T05:42:54.404Z,1014.08
2018-11-01T05:43:54.390Z,1014.01
2018-11-01T05:44:54.384Z,1013.99
2018-11-01T05:45:54.371Z,1013.99
2018-11-01T05:46:54.361Z,1013.93
2018-11-01T05:47:54.388Z,1013.98
2018-11-01T05:48:54.340Z,1013.95
2018-11-01T05:49:54.327Z,1013.94
2018-11-01T05:50:54.316Z,1014.01
2018-11-01T05:51:54.309Z,1013.98
2018-11-01T05:52:54.294Z,1013.96
2018-11-01T05:53:54.322Z,1014.02
2018-11-01T05:54:54.274Z,1013.92
2018-11-01T05:55:54.274Z,1014.02
2018-11-01T05:56:54.249Z,1013.99
2018-11-01T05:58:04.337Z,1014.00
2018-11-01T05:58:54.230Z,1014.09
2018-11-01T05:59:54.267Z,1014.04
2018-11-01T06:00:54.207Z,1014.06
2018-11-01T06:01:54.193Z,1014.09
2018-11-01T06:02:54.201Z,1014.13
2018-11-01T06:03:54.171Z,1014.08
2018-11-01T06:04:54.160Z,1014.15
2018-11-01T06:05:54.322Z,1014.08
2018-11-01T06:06:54.151Z,1014.11
2018-11-01T06:07:54.131Z,1014.12
2018-11-01T06:08:54.123Z,1014.15
2018-11-01T06:09:54.116Z,1014.22
2018-11-01T06:10:54.097Z,1014.18
2018-11-01T06:11:54.116Z,1014.24
2018-11-01T06:12:54.086Z,1014.26
2018-11-01T06:13:54.064Z,1014.34
2018-11-01T06:14:54.055Z,1014.34
2018-11-01T06:15:54.051Z,1014.31
2018-11-01T06:16:54.035Z,1014.36
2018-11-01T06:17:54.061Z,1014.42
2018-11-01T06:18:54.014Z,1014.41
2018-11-01T06:19:54.006Z,1014.44
2018-11-01T06:20:53.989Z,1014.40
2018-11-01T06:21:53.995Z,1014.46
2018-11-01T06:22:53.977Z,1014.52
2018-11-01T06:23:54.003Z,1014.42
2018-11-01T06:24:53.952Z,1014.41
2018-11-01T06:25:53.949Z,1014.38
2018-11-01T06:26:53.928Z,1014.44
2018-11-01T06:27:53.916Z,1014.48
2018-11-01T06:29:04.200Z,1014.38
2018-11-01T06:29:53.894Z,1014.49
2018-11-01T06:30:53.884Z,1014.49
2018-11-01T06:31:53.870Z,1014.44
2018-11-01T06:32:53.859Z,1014.46
2018-11-01T06:33:53.846Z,1014.49
2018-11-01T06:34:54.016Z,1014.52
2018-11-01T06:35:53.827Z,1014.53
2018-11-01T06:36:53.822Z,1014.53
2018-11-01T06:37:53.808Z,1014.53
2018-11-01T06:38:53.796Z,1014.52
2018-11-01T06:39:53.786Z,1014.52
2018-11-01T06:40:53.814Z,1014.53
2018-11-01T06:41:53.763Z,1014.55
2018-11-01T06:42:53.751Z,1014.59
2018-11-01T06:43:53.743Z,1014.63
2018-11-01T06:44:53.796Z,1014.60
2018-11-01T06:45:53.723Z,1014.62
2018-11-01T06:46:53.741Z,1014.63
2018-11-01T06:47:53.700Z,1014.66
2018-11-01T06:48:53.689Z,1014.66
2018-11-01T06:49:53.678Z,1014.72
2018-11-01T06:50:53.672Z,1014.68
2018-11-01T06:51:53.655Z,1014.75
2018-11-01T06:52:53.680Z,1014.66
2018-11-01T06:53:53.631Z,1014.74
2018-11-01T06:54:53.619Z,1014.77
2018-11-01T06:55:53.612Z,1014.70
2018-11-01T06:56:53.600Z,1014.72
2018-11-01T06:57:53.601Z,1014.72
2018-11-01T06:58:53.704Z,1014.70
2018-11-01T07:00:04.067Z,1014.67
2018-11-01T07:00:53.562Z,1014.78
2018-11-01T07:01:53.541Z,1014.81
2018-11-01T07:02:53.533Z,1014.84
2018-11-01T07:03:53.526Z,1014.78
2018-11-01T07:04:53.547Z,1014.89
2018-11-01T07:05:53.523Z,1014.84
2018-11-01T07:06:53.491Z,1014.83
2018-11-01T07:07:53.490Z,1014.85
2018-11-01T07:08:53.486Z,1014.89
2018-11-01T07:09:53.457Z,1014.85
2018-11-01T07:10:53.484Z,1014.84
2018-11-01T07:11:53.444Z,1014.83
2018-11-01T07:12:53.433Z,1014.87
2018-11-01T07:13:53.414Z,1014.83
2018-11-01T07:14:53.404Z,1014.79
2018-11-01T07:15:53.396Z,1014.83
2018-11-01T07:16:53.591Z,1014.86
2018-11-01T07:17:53.381Z,1014.87
2018-11-01T07:18:53.375Z,1014.83
2018-11-01T07:19:53.356Z,1014.85
2018-11-01T07:20:53.342Z,1014.86
2018-11-01T07:21:53.331Z,1014.78
2018-11-01T07:22:53.491Z,1014.88
2018-11-01T07:23:53.318Z,1014.84
2018-11-01T07:24:53.301Z,1014.89
2018-11-01T07:25:53.332Z,1014.92
2018-11-01T07:26:53.277Z,1014.90
2018-11-01T07:27:53.270Z,1014.90
2018-11-01T07:28:53.292Z,1014.90
2018-11-01T07:29:53.251Z,1014.87
2018-11-01T07:31:03.972Z,1014.87
2018-11-01T07:31:53.224Z,1014.90
2018-11-01T07:32:53.265Z,1014.85
2018-11-01T07:33:53.201Z,1014.87
2018-11-01T07:34:53.234Z,1014.85
2018-11-01T07:35:53.176Z,1014.80
2018-11-01T07:36:53.172Z,1014.89
2018-11-01T07:37:53.160Z,1014.87
2018-11-01T07:38:53.163Z,1014.89
2018-11-01T07:39:53.210Z,1014.89
2018-11-01T07:40:53.140Z,1014.93
2018-11-01T07:41:53.113Z,1014.93
2018-11-01T07:42:53.100Z,1014.92
2018-11-01T07:43:53.097Z,1014.96
2018-11-01T07:44:53.085Z,1014.96
2018-11-01T07:45:53.080Z,1014.95
2018-11-01T07:46:53.230Z,1014.97
2018-11-01T07:47:53.044Z,1015.00
2018-11-01T07:48:53.043Z,1015.01
2018-11-01T07:49:53.024Z,1015.09
2018-11-01T07:50:53.038Z,1015.07
2018-11-01T07:51:53.007Z,1015.10
2018-11-01T07:52:53.279Z,1015.06
2018-11-01T07:53:53.016Z,1015.08
2018-11-01T07:54:52.970Z,1015.11
2018-11-01T07:55:52.974Z,1015.07
2018-11-01T07:56:52.949Z,1015.07
2018-11-01T07:57:52.940Z,1015.14
2018-11-01T07:58:52.953Z,1015.12
2018-11-01T07:59:52.931Z,1015.14
2018-11-01T08:00:52.916Z,1015.17
2018-11-01T08:02:02.886Z,1015.05
2018-11-01T08:02:52.891Z,1015.06
2018-11-01T08:03:52.874Z,1015.11
2018-11-01T08:04:52.898Z,1015.12
2018-11-01T08:05:53.026Z,1015.21
2018-11-01T08:06:52.842Z,1015.15
2018-11-01T08:07:52.842Z,1015.19
2018-11-01T08:08:52.821Z,1015.25
2018-11-01T08:09:52.810Z,1015.22
2018-11-01T08:10:52.842Z,1015.21
2018-11-01T08:11:52.851Z,1015.27
2018-11-01T08:12:52.783Z,1015.25
2018-11-01T08:13:52.764Z,1015.25
2018-11-01T08:14:52.756Z,1015.23
2018-11-01T08:15:52.752Z,1015.28
2018-11-01T08:16:52.768Z,1015.28
2018-11-01T08:17:52.732Z,1015.30
2018-11-01T08:18:52.723Z,1015.28
2018-11-01T08:19:52.967Z,1015.40
2018-11-01T08:20:52.763Z,1015.37
2018-11-01T08:21:52.681Z,1015.28
2018-11-01T08:22:52.687Z,1015.33
2018-11-01T08:23:52.665Z,1015.31
2018-11-01T08:24:52.663Z,1015.32
2018-11-01T08:25:52.646Z,1015.34
2018-11-01T08:26:52.629Z,1015.26
2018-11-01T08:27:52.679Z,1015.26
2018-11-01T08:28:52.868Z,1015.28
2018-11-01T08:29:52.616Z,1015.31
2018-11-01T08:30:52.581Z,1015.34
2018-11-01T08:31:52.574Z,1015.32
2018-11-01T08:33:03.105Z,1015.34
2018-11-01T08:33:52.547Z,1015.39
2018-11-01T08:34:52.713Z,1015.39
2018-11-01T08:35:52.532Z,1015.38
2018-11-01T08:36:52.513Z,1015.39
2018-11-01T08:37:52.504Z,1015.40
2018-11-01T08:38:52.503Z,1015.45
2018-11-01T08:39:52.482Z,1015.42
2018-11-01T08:40:52.575Z,1015.42
2018-11-01T08:41:52.458Z,1015.47
2018-11-01T08:42:52.453Z,1015.44
2018-11-01T08:43:52.441Z,1015.45
2018-11-01T08:44:52.429Z,1015.50
2018-11-01T08:45:52.423Z,1015.54
2018-11-01T08:46:52.444Z,1015.49
2018-11-01T08:47:52.407Z,1015.50
2018-11-01T08:48:52.382Z,1015.50
2018-11-01T08:49:52.384Z,1015.60
2018-11-01T08:50:52.369Z,1015.57
2018-11-01T08:51:52.376Z,1015.62
2018-11-01T08:52:52.514Z,1015.67
2018-11-01T08:53:52.332Z,1015.58
2018-11-01T08:54:52.318Z,1015.77
2018-11-01T08:55:52.337Z,1015.68
2018-11-01T08:56:52.303Z,1015.76
2018-11-01T08:57:52.313Z,1015.78
2018-11-01T08:58:52.343Z,1015.84
2018-11-01T08:59:52.267Z,1015.76
2018-11-01T09:00:52.255Z,1015.76
2018-11-01T09:01:52.248Z,1015.71
2018-11-01T09:02:52.241Z,1015.77
2018-11-01T09:04:02.803Z,1015.79
2018-11-01T09:04:52.211Z,1015.80
2018-11-01T09:05:52.204Z,1015.92
2018-11-01T09:06:52.197Z,1016.00
2018-11-01T09:07:52.182Z,1015.86
2018-11-01T09:08:52.196Z,1015.87
2018-11-01T09:09:52.205Z,1015.83
2018-11-01T09:10:52.165Z,1015.84
2018-11-01T09:11:52.145Z,1015.84
2018-11-01T09:12:52.213Z,1015.87
2018-11-01T09:13:52.114Z,1015.83
2018-11-01T09:14:52.103Z,1015.87
2018-11-01T09:15:52.148Z,1016.02
2018-11-01T09:16:52.080Z,1015.89
2018-11-01T09:17:52.089Z,1015.96
2018-11-01T09:18:52.065Z,1015.90
2018-11-01T09:19:52.086Z,1015.94
2018-11-01T09:20:52.045Z,1015.90
2018-11-01T09:21:52.064Z,1015.78
2018-11-01T09:22:52.024Z,1015.93
2018-11-01T09:23:52.033Z,1015.92
2018-11-01T09:24:52.032Z,1015.90
2018-11-01T09:25:51.982Z,1015.93
2018-11-01T09:26:52.028Z,1015.92
2018-11-01T09:27:51.999Z,1015.88
2018-11-01T09:28:51.957Z,1015.94
2018-11-01T09:29:51.961Z,1015.93
2018-11-01T09:30:51.929Z,1015.91
2018-11-01T09:31:51.952Z,1015.95
2018-11-01T09:32:51.928Z,1015.97
2018-11-01T09:33:51.940Z,1015.99
2018-11-01T09:35:01.838Z,1016.09
2018-11-01T09:35:52.024Z,1016.12
2018-11-01T09:36:51.866Z,1015.93
2018-11-01T09:37:51.859Z,1015.87
2018-11-01T09:38:51.848Z,1015.85
2018-11-01T09:39:51.878Z,1015.98
2018-11-01T09:40:51.829Z,1015.97
2018-11-01T09:41:51.831Z,1015.92
2018-11-01T09:42:51.805Z,1015.97
2018-11-01T09:43:51.788Z,1015.95
2018-11-01T09:44:51.786Z,1015.92
2018-11-01T09:45:52.169Z,1015.91
2018-11-01T09:46:52.086Z,1015.94
2018-11-01T09:47:51.991Z,1015.90
2018-11-01T09:48:51.736Z,1015.97
2018-11-01T09:49:51.731Z,1015.94
2018-11-01T09:50:51.718Z,1015.94
2018-11-01T09:51:51.740Z,1016.00
2018-11-01T09:52:51.696Z,1015.95
2018-11-01T09:53:51.685Z,1016.07
2018-11-01T09:54:51.667Z,1016.09
2018-11-01T09:55:51.814Z,1016.06
2018-11-01T09:56:51.657Z,1016.07
2018-11-01T09:57:51.680Z,1016.06
2018-11-01T09:58:51.627Z,1016.05
2018-11-01T09:59:51.658Z,1016.02
2018-11-01T10:00:51.633Z,1016.01
2018-11-01T10:01:51.592Z,1016.15
2018-11-01T10:02:51.586Z,1016.20
2018-11-01T10:03:51.622Z,1016.16
2018-11-01T10:04:51.663Z,1016.17
2018-11-01T10:06:01.660Z,1016.19
2018-11-01T10:06:51.548Z,1016.21
2018-11-01T10:07:51.531Z,1016.28
2018-11-01T10:08:51.518Z,1016.25
2018-11-01T10:09:51.562Z,1016.23
2018-11-01T10:10:51.501Z,1016.33
2018-11-01T10:11:51.500Z,1016.29
2018-11-01T10:12:51.479Z,1016.36
2018-11-01T10:13:51.532Z,1016.44
2018-11-01T10:14:51.463Z,1016.32
2018-11-01T10:15:51.744Z,1016.32
2018-11-01T10:16:51.589Z,1016.36
2018-11-01T10:17:51.932Z,1016.32
2018-11-01T10:18:51.406Z,1016.28
2018-11-01T10:19:51.397Z,1016.23
2018-11-01T10:20:51.392Z,1016.25
2018-11-01T10:21:51.547Z,1016.28
2018-11-01T10:22:51.372Z,1016.29
2018-11-01T10:23:51.382Z,1016.35
2018-11-01T10:24:51.347Z,1016.31
2018-11-01T10:25:51.366Z,1016.36
2018-11-01T10:26:51.327Z,1016.44
2018-11-01T10:27:51.469Z,1016.33
2018-11-01T10:28:51.304Z,1016.39
2018-11-01T10:29:51.305Z,1016.40
2018-11-01T10:30:51.291Z,1016.38
2018-11-01T10:31:51.275Z,1016.39
2018-11-01T10:32:51.259Z,1016.42
2018-11-01T10:33:51.308Z,1016.37
2018-11-01T10:34:51.234Z,1016.35
2018-11-01T10:35:51.222Z,1016.28
2018-11-01T10:37:02.000Z,1016.28
2018-11-01T10:37:51.204Z,1016.30
2018-11-01T10:38:51.197Z,1016.33
2018-11-01T10:39:51.225Z,1016.29
2018-11-01T10:40:51.255Z,1016.31
2018-11-01T10:41:51.158Z,1016.34
2018-11-01T10:42:51.147Z,1016.31
2018-11-01T10:43:51.146Z,1016.26
2018-11-01T10:44:51.123Z,1016.26
2018-11-01T10:45:51.156Z,1016.33
2018-11-01T10:46:51.108Z,1016.37
2018-11-01T10:47:51.177Z,1016.35
2018-11-01T10:48:51.082Z,1016.31
2018-11-01T10:49:51.083Z,1016.34
2018-11-01T10:50:51.064Z,1016.33
2018-11-01T10:51:51.095Z,1016.35
2018-11-01T10:52:51.045Z,1016.39
2018-11-01T10:53:51.178Z,1016.41
2018-11-01T10:54:51.014Z,1016.39
2018-11-01T10:55:51.014Z,1016.40
2018-11-01T10:56:51.000Z,1016.49
2018-11-01T10:57:51.028Z,1016.50
2018-11-01T10:58:50.977Z,1016.45
2018-11-01T10:59:51.082Z,1016.48
2018-11-01T11:00:51.067Z,1016.46
2018-11-01T11:01:50.951Z,1016.45
2018-11-01T11:02:50.942Z,1016.55
2018-11-01T11:03:50.962Z,1016.47
2018-11-01T11:04:50.916Z,1016.42
2018-11-01T11:05:50.907Z,1016.42
2018-11-01T11:06:50.896Z,1016.38
2018-11-01T11:08:01.966Z,1016.35
2018-11-01T11:08:50.869Z,1016.39
2018-11-01T11:09:51.232Z,1016.41
2018-11-01T11:10:50.851Z,1016.36
2018-11-01T11:11:50.844Z,1016.46
2018-11-01T11:12:50.822Z,1016.49
2018-11-01T11:13:50.821Z,1016.48
2018-11-01T11:14:50.813Z,1016.46
2018-11-01T11:15:50.853Z,1016.47
2018-11-01T11:16:50.795Z,1016.51
2018-11-01T11:17:50.772Z,1016.43
2018-11-01T11:18:50.761Z,1016.54
2018-11-01T11:19:50.845Z,1016.49
2018-11-01T11:20:51.108Z,1016.45
2018-11-01T11:21:50.803Z,1016.46
2018-11-01T11:22:50.743Z,1016.52
2018-11-01T11:23:50.702Z,1016.51
2018-11-01T11:24:50.700Z,1016.50
2018-11-01T11:25:50.691Z,1016.52
2018-11-01T11:26:50.671Z,1016.49
2018-11-01T11:27:50.697Z,1016.48
2018-11-01T11:28:50.658Z,1016.51
2018-11-01T11:29:50.658Z,1016.51
2018-11-01T11:30:50.628Z,1016.54
2018-11-01T11:31:50.634Z,1016.58
2018-11-01T11:32:50.602Z,1016.57
2018-11-01T11:33:50.639Z,1016.52
2018-11-01T11:34:50.584Z,1016.48
2018-11-01T11:35:50.682Z,1016.52
2018-11-01T11:36:50.563Z,1016.55
2018-11-01T11:37:50.556Z,1016.52
2018-11-01T11:39:01.885Z,1016.53
2018-11-01T11:39:50.679Z,1016.53
2018-11-01T11:40:50.519Z,1016.58
2018-11-01T11:41:50.510Z,1016.52
2018-11-01T11:42:50.498Z,1016.56
2018-11-01T11:43:50.492Z,1016.67
2018-11-01T11:44:50.520Z,1016.79
2018-11-01T11:45:50.478Z,1016.62
2018-11-01T11:46:50.469Z,1016.46
2018-11-01T11:47:50.447Z,1016.56
2018-11-01T11:48:50.433Z,1016.55
2018-11-01T11:49:50.439Z,1016.51
2018-11-01T11:50:50.448Z,1016.59
2018-11-01T11:51:50.408Z,1016.68
2018-11-01T11:52:50.396Z,1016.48
2018-11-01T11:53:50.386Z,1016.51
2018-11-01T11:54:50.385Z,1016.63
2018-11-01T11:55:50.363Z,1016.55
2018-11-01T11:56:50.537Z,1016.53
2018-11-01T11:57:50.337Z,1016.56
2018-11-01T11:58:50.335Z,1016.52
2018-11-01T11:59:50.324Z,1016.66
2018-11-01T12:00:50.309Z,1016.63
2018-11-01T12:01:50.323Z,1016.59
2018-11-01T12:02:50.322Z,1016.68
2018-11-01T12:03:50.280Z,1016.64
2018-11-01T12:04:50.265Z,1016.64
2018-11-01T12:05:50.279Z,1016.61